sensor_id;sensor_type;location;lat;lon;timestamp;pressure;altitude;pressure_sealevel;temperature;humidity
17772;BME280;9010;32.624;-96.938;2022-07-23T00:00:33;98910.03;;;35.56;52.54
17772;BME280;9010;32.624;-96.938;2022-07-23T00:03:02;98911.97;;;35.56;52.42
17772;BME280;9010;32.624;-96.938;2022-07-23T00:05:30;98903.25;;;35.59;51.69
17772;BME280;9010;32.624;-96.938;2022-07-23T00:07:58;98901.91;;;35.45;52.67
17772;BME280;9010;32.624;-96.938;2022-07-23T00:10:28;98903.63;;;35.51;51.92
17772;BME280;9010;32.624;-96.938;2022-07-23T00:12:56;98906.28;;;35.46;52.13
17772;BME280;9010;32.624;-96.938;2022-07-23T00:15:24;98913.22;;;35.37;53.13
17772;BME280;9010;32.624;-96.938;2022-07-23T00:17:53;98908.44;;;35.27;54.70
17772;BME280;9010;32.624;-96.938;2022-07-23T00:20:21;98905.72;;;35.27;53.35
17772;BME280;9010;32.624;-96.938;2022-07-23T00:22:50;98910.34;;;35.27;52.93
17772;BME280;9010;32.624;-96.938;2022-07-23T00:25:19;98917.47;;;35.28;53.11
17772;BME280;9010;32.624;-96.938;2022-07-23T00:27:49;98913.22;;;35.37;52.36
17772;BME280;9010;32.624;-96.938;2022-07-23T00:30:17;98913.66;;;35.29;52.83
17772;BME280;9010;32.624;-96.938;2022-07-23T00:32:47;98918.28;;;35.28;52.41
17772;BME280;9010;32.624;-96.938;2022-07-23T00:35:16;98917.47;;;35.28;52.16
17772;BME280;9010;32.624;-96.938;2022-07-23T00:37:44;98931.53;;;35.19;52.73
17772;BME280;9010;32.624;-96.938;2022-07-23T00:40:13;98935.63;;;35.05;57.00
17772;BME280;9010;32.624;-96.938;2022-07-23T00:42:41;98954.47;;;34.90;59.81
17772;BME280;9010;32.624;-96.938;2022-07-23T00:45:11;98959.06;;;34.50;63.33
17772;BME280;9010;32.624;-96.938;2022-07-23T00:47:39;98976.22;;;34.34;64.56
17772;BME280;9010;32.624;-96.938;2022-07-23T00:50:09;98979.19;;;34.09;67.51
17772;BME280;9010;32.624;-96.938;2022-07-23T00:52:38;98985.09;;;33.83;69.71
17772;BME280;9010;32.624;-96.938;2022-07-23T00:55:09;98993.72;;;33.68;70.29
17772;BME280;9010;32.624;-96.938;2022-07-23T00:57:38;98995.91;;;33.48;71.06
17772;BME280;9010;32.624;-96.938;2022-07-23T01:00:11;98989.31;;;33.26;72.09
17772;BME280;9010;32.624;-96.938;2022-07-23T01:02:40;98993.75;;;33.09;72.57
17772;BME280;9010;32.624;-96.938;2022-07-23T01:05:08;98997.75;;;32.88;73.97
17772;BME280;9010;32.624;-96.938;2022-07-23T01:07:37;99002.84;;;32.84;73.87
17772;BME280;9010;32.624;-96.938;2022-07-23T01:10:06;99003.75;;;32.78;74.25
17772;BME280;9010;32.624;-96.938;2022-07-23T01:12:55;98998.47;;;32.65;75.00
17772;BME280;9010;32.624;-96.938;2022-07-23T01:15:25;98996.06;;;32.57;75.36
17772;BME280;9010;32.624;-96.938;2022-07-23T01:17:53;98995.72;;;32.47;75.03
17772;BME280;9010;32.624;-96.938;2022-07-23T01:20:22;98999.56;;;32.39;75.00
17772;BME280;9010;32.624;-96.938;2022-07-23T01:22:53;99002.19;;;32.28;75.56
17772;BME280;9010;32.624;-96.938;2022-07-23T01:25:22;98999.78;;;32.20;76.00
17772;BME280;9010;32.624;-96.938;2022-07-23T01:27:52;99005.66;;;32.17;76.26
17772;BME280;9010;32.624;-96.938;2022-07-23T01:30:21;99020.00;;;32.06;76.58
17772;BME280;9010;32.624;-96.938;2022-07-23T01:32:49;99012.88;;;32.05;76.47
17772;BME280;9010;32.624;-96.938;2022-07-23T01:35:17;99015.63;;;32.05;76.48
17772;BME280;9010;32.624;-96.938;2022-07-23T01:37:45;99009.97;;;32.00;76.50
17772;BME280;9010;32.624;-96.938;2022-07-23T01:40:15;99014.22;;;31.96;76.69
17772;BME280;9010;32.624;-96.938;2022-07-23T01:42:45;99007.41;;;31.86;77.89
17772;BME280;9010;32.624;-96.938;2022-07-23T01:45:13;99005.50;;;31.87;77.53
17772;BME280;9010;32.624;-96.938;2022-07-23T01:47:41;99014.75;;;31.79;78.42
17772;BME280;9010;32.624;-96.938;2022-07-23T01:50:10;99006.44;;;31.74;77.99
17772;BME280;9010;32.624;-96.938;2022-07-23T01:52:39;99009.59;;;31.71;78.11
17772;BME280;9010;32.624;-96.938;2022-07-23T01:55:08;99013.19;;;31.65;78.90
17772;BME280;9010;32.624;-96.938;2022-07-23T01:57:38;99022.00;;;31.67;78.66
17772;BME280;9010;32.624;-96.938;2022-07-23T02:00:07;99021.53;;;31.70;78.22
17772;BME280;9010;32.624;-96.938;2022-07-23T02:02:35;99025.72;;;31.73;77.71
17772;BME280;9010;32.624;-96.938;2022-07-23T02:05:04;99034.34;;;31.63;78.01
17772;BME280;9010;32.624;-96.938;2022-07-23T02:07:33;99027.19;;;31.69;78.35
17772;BME280;9010;32.624;-96.938;2022-07-23T02:10:01;99029.94;;;31.62;78.87
17772;BME280;9010;32.624;-96.938;2022-07-23T02:12:29;99028.91;;;31.63;78.43
17772;BME280;9010;32.624;-96.938;2022-07-23T02:14:59;99033.09;;;31.59;78.86
17772;BME280;9010;32.624;-96.938;2022-07-23T02:17:27;99040.47;;;31.59;77.83
17772;BME280;9010;32.624;-96.938;2022-07-23T02:19:56;99038.94;;;31.63;78.01
17772;BME280;9010;32.624;-96.938;2022-07-23T02:22:24;99035.81;;;31.59;78.38
17772;BME280;9010;32.624;-96.938;2022-07-23T02:24:52;99031.25;;;31.53;78.32
17772;BME280;9010;32.624;-96.938;2022-07-23T02:27:20;99024.34;;;31.57;77.84
17772;BME280;9010;32.624;-96.938;2022-07-23T02:29:49;99022.50;;;31.51;78.44
17772;BME280;9010;32.624;-96.938;2022-07-23T02:32:19;99025.91;;;31.40;78.49
17772;BME280;9010;32.624;-96.938;2022-07-23T02:34:47;99020.50;;;31.33;79.09
17772;BME280;9010;32.624;-96.938;2022-07-23T02:37:15;99023.28;;;31.27;79.27
17772;BME280;9010;32.624;-96.938;2022-07-23T02:39:44;99028.53;;;31.22;79.89
17772;BME280;9010;32.624;-96.938;2022-07-23T02:42:14;99035.19;;;31.26;79.22
17772;BME280;9010;32.624;-96.938;2022-07-23T02:44:43;99033.97;;;31.22;79.94
17772;BME280;9010;32.624;-96.938;2022-07-23T02:47:11;99023.97;;;31.16;80.93
17772;BME280;9010;32.624;-96.938;2022-07-23T02:49:41;99043.41;;;31.13;80.28
17772;BME280;9010;32.624;-96.938;2022-07-23T02:52:09;99040.31;;;31.03;80.88
17772;BME280;9010;32.624;-96.938;2022-07-23T02:54:37;99041.75;;;31.05;80.86
17772;BME280;9010;32.624;-96.938;2022-07-23T02:57:05;99057.03;;;31.00;80.85
17772;BME280;9010;32.624;-96.938;2022-07-23T02:59:34;99062.69;;;30.98;80.49
17772;BME280;9010;32.624;-96.938;2022-07-23T03:02:02;99059.97;;;30.92;81.41
17772;BME280;9010;32.624;-96.938;2022-07-23T03:04:30;99064.78;;;30.90;81.38
17772;BME280;9010;32.624;-96.938;2022-07-23T03:07:00;99062.06;;;30.90;81.04
17772;BME280;9010;32.624;-96.938;2022-07-23T03:09:28;99069.19;;;30.91;81.19
17772;BME280;9010;32.624;-96.938;2022-07-23T03:11:56;99068.53;;;30.89;80.61
17772;BME280;9010;32.624;-96.938;2022-07-23T03:14:24;99074.81;;;30.83;80.59
17772;BME280;9010;32.624;-96.938;2022-07-23T03:16:53;99075.84;;;30.88;80.28
17772;BME280;9010;32.624;-96.938;2022-07-23T03:19:22;99082.97;;;30.83;80.47
17772;BME280;9010;32.624;-96.938;2022-07-23T03:21:50;99077.16;;;30.79;81.16
17772;BME280;9010;32.624;-96.938;2022-07-23T03:24:20;99085.91;;;30.74;80.81
17772;BME280;9010;32.624;-96.938;2022-07-23T03:26:49;99088.44;;;30.76;81.32
17772;BME280;9010;32.624;-96.938;2022-07-23T03:29:18;99089.91;;;30.72;81.31
17772;BME280;9010;32.624;-96.938;2022-07-23T03:31:46;99092.81;;;30.77;81.19
17772;BME280;9010;32.624;-96.938;2022-07-23T03:34:14;99092.63;;;30.65;81.71
17772;BME280;9010;32.624;-96.938;2022-07-23T03:36:44;99095.56;;;30.64;81.67
17772;BME280;9010;32.624;-96.938;2022-07-23T03:39:12;99110.16;;;30.63;82.36
17772;BME280;9010;32.624;-96.938;2022-07-23T03:41:42;99098.88;;;30.66;82.25
17772;BME280;9010;32.624;-96.938;2022-07-23T03:44:10;99110.63;;;30.53;83.55
17772;BME280;9010;32.624;-96.938;2022-07-23T03:46:39;99113.53;;;30.52;83.91
17772;BME280;9010;32.624;-96.938;2022-07-23T03:49:07;99113.56;;;30.45;83.93
17772;BME280;9010;32.624;-96.938;2022-07-23T03:51:35;99130.44;;;30.41;84.21
17772;BME280;9010;32.624;-96.938;2022-07-23T03:54:04;99123.97;;;30.35;84.69
17772;BME280;9010;32.624;-96.938;2022-07-23T03:56:32;99128.56;;;30.41;84.61
17772;BME280;9010;32.624;-96.938;2022-07-23T03:59:02;99134.81;;;30.35;84.93
17772;BME280;9010;32.624;-96.938;2022-07-23T04:01:30;99136.47;;;30.23;85.93
17772;BME280;9010;32.624;-96.938;2022-07-23T04:03:59;99141.47;;;30.26;86.14
17772;BME280;9010;32.624;-96.938;2022-07-23T04:06:27;99136.47;;;30.23;85.93
17772;BME280;9010;32.624;-96.938;2022-07-23T04:08:55;99134.81;;;30.22;86.79
17772;BME280;9010;32.624;-96.938;2022-07-23T04:11:23;99132.09;;;30.15;86.73
17772;BME280;9010;32.624;-96.938;2022-07-23T04:13:52;99128.97;;;30.18;86.70
17772;BME280;9010;32.624;-96.938;2022-07-23T04:16:22;99125.63;;;30.10;87.21
17772;BME280;9010;32.624;-96.938;2022-07-23T04:18:50;99106.00;;;29.95;87.66
17772;BME280;9010;32.624;-96.938;2022-07-23T04:21:18;99133.75;;;29.97;88.49
17772;BME280;9010;32.624;-96.938;2022-07-23T04:23:46;99124.56;;;29.98;88.38
17772;BME280;9010;32.624;-96.938;2022-07-23T04:26:14;99123.75;;;29.91;89.17
17772;BME280;9010;32.624;-96.938;2022-07-23T04:28:43;99112.44;;;29.81;90.00
17772;BME280;9010;32.624;-96.938;2022-07-23T04:31:13;99113.88;;;29.77;90.74
17772;BME280;9010;32.624;-96.938;2022-07-23T04:33:43;99112.44;;;29.74;90.99
17772;BME280;9010;32.624;-96.938;2022-07-23T04:36:11;99107.19;;;29.73;90.53
17772;BME280;9010;32.624;-96.938;2022-07-23T04:38:39;99108.84;;;29.67;90.50
17772;BME280;9010;32.624;-96.938;2022-07-23T04:41:08;99095.91;;;29.56;90.76
17772;BME280;9010;32.624;-96.938;2022-07-23T04:43:36;99095.88;;;29.49;91.58
17772;BME280;9010;32.624;-96.938;2022-07-23T04:46:04;99096.69;;;29.43;91.96
17772;BME280;9010;32.624;-96.938;2022-07-23T04:48:33;99108.59;;;29.49;91.43
17772;BME280;9010;32.624;-96.938;2022-07-23T04:51:03;99113.38;;;29.47;91.34
17772;BME280;9010;32.624;-96.938;2022-07-23T04:53:31;99116.72;;;29.42;91.62
17772;BME280;9010;32.624;-96.938;2022-07-23T04:56:00;99120.22;;;29.36;91.93
17772;BME280;9010;32.624;-96.938;2022-07-23T04:58:28;99125.00;;;29.28;92.37
17772;BME280;9010;32.624;-96.938;2022-07-23T05:00:57;99119.81;;;29.33;92.47
17772;BME280;9010;32.624;-96.938;2022-07-23T05:03:26;99122.06;;;29.23;93.25
17772;BME280;9010;32.624;-96.938;2022-07-23T05:05:54;99118.50;;;29.22;92.97
17772;BME280;9010;32.624;-96.938;2022-07-23T05:08:25;99116.19;;;29.19;93.30
17772;BME280;9010;32.624;-96.938;2022-07-23T05:10:53;99121.16;;;29.09;93.94
17772;BME280;9010;32.624;-96.938;2022-07-23T05:13:22;99105.69;;;29.03;94.59
17772;BME280;9010;32.624;-96.938;2022-07-23T05:15:50;99109.44;;;29.02;94.64
17772;BME280;9010;32.624;-96.938;2022-07-23T05:18:18;99111.13;;;29.03;94.27
17772;BME280;9010;32.624;-96.938;2022-07-23T05:20:46;99118.75;;;28.93;94.85
17772;BME280;9010;32.624;-96.938;2022-07-23T05:23:15;99104.59;;;28.91;94.54
17772;BME280;9010;32.624;-96.938;2022-07-23T05:25:44;99112.50;;;28.92;94.67
17772;BME280;9010;32.624;-96.938;2022-07-23T05:28:13;99111.88;;;28.90;95.43
17772;BME280;9010;32.624;-96.938;2022-07-23T05:30:41;99110.19;;;28.83;95.44
17772;BME280;9010;32.624;-96.938;2022-07-23T05:33:09;99107.03;;;28.79;95.14
17772;BME280;9010;32.624;-96.938;2022-07-23T05:35:37;99108.88;;;28.79;95.46
17772;BME280;9010;32.624;-96.938;2022-07-23T05:38:05;99104.72;;;28.76;95.07
17772;BME280;9010;32.624;-96.938;2022-07-23T05:40:34;99109.50;;;28.74;95.62
17772;BME280;9010;32.624;-96.938;2022-07-23T05:43:04;99106.41;;;28.77;94.62
17772;BME280;9010;32.624;-96.938;2022-07-23T05:45:32;99114.47;;;28.71;95.32
17772;BME280;9010;32.624;-96.938;2022-07-23T05:48:00;99107.59;;;28.68;95.37
17772;BME280;9010;32.624;-96.938;2022-07-23T05:50:29;99105.06;;;28.67;95.00
17772;BME280;9010;32.624;-96.938;2022-07-23T05:52:57;99106.97;;;28.73;94.52
17772;BME280;9010;32.624;-96.938;2022-07-23T05:55:25;99109.84;;;28.65;95.31
17772;BME280;9010;32.624;-96.938;2022-07-23T05:57:55;99120.00;;;28.63;95.89
17772;BME280;9010;32.624;-96.938;2022-07-23T06:00:25;99115.78;;;28.53;96.36
17772;BME280;9010;32.624;-96.938;2022-07-23T06:02:58;99108.66;;;28.46;96.47
17772;BME280;9010;32.624;-96.938;2022-07-23T06:05:26;99121.59;;;28.50;96.51
17772;BME280;9010;32.624;-96.938;2022-07-23T06:07:54;99117.84;;;28.51;96.78
17772;BME280;9010;32.624;-96.938;2022-07-23T06:10:23;99114.50;;;28.49;97.37
17772;BME280;9010;32.624;-96.938;2022-07-23T06:12:51;99108.91;;;28.51;96.63
17772;BME280;9010;32.624;-96.938;2022-07-23T06:15:19;99107.81;;;28.45;97.35
17772;BME280;9010;32.624;-96.938;2022-07-23T06:17:49;99106.50;;;28.35;98.08
17772;BME280;9010;32.624;-96.938;2022-07-23T06:20:17;99104.38;;;28.30;98.14
17772;BME280;9010;32.624;-96.938;2022-07-23T06:22:46;99112.69;;;28.29;98.74
17772;BME280;9010;32.624;-96.938;2022-07-23T06:25:14;99106.44;;;28.28;98.99
17772;BME280;9010;32.624;-96.938;2022-07-23T06:27:43;99104.72;;;28.21;99.08
17772;BME280;9010;32.624;-96.938;2022-07-23T06:30:12;99117.59;;;28.19;99.31
17772;BME280;9010;32.624;-96.938;2022-07-23T06:32:42;99121.75;;;28.21;99.32
17772;BME280;9010;32.624;-96.938;2022-07-23T06:35:12;99115.66;;;28.13;100.00
17772;BME280;9010;32.624;-96.938;2022-07-23T06:37:41;99119.56;;;28.04;100.00
17772;BME280;9010;32.624;-96.938;2022-07-23T06:40:10;99127.81;;;28.02;100.00
17772;BME280;9010;32.624;-96.938;2022-07-23T06:42:39;99119.72;;;28.02;100.00
17772;BME280;9010;32.624;-96.938;2022-07-23T06:45:08;99129.03;;;28.00;100.00
17772;BME280;9010;32.624;-96.938;2022-07-23T06:47:36;99124.78;;;27.90;100.00
17772;BME280;9010;32.624;-96.938;2022-07-23T06:50:06;99142.38;;;28.01;100.00
17772;BME280;9010;32.624;-96.938;2022-07-23T06:52:36;99140.25;;;27.96;100.00
17772;BME280;9010;32.624;-96.938;2022-07-23T06:55:05;99138.13;;;27.92;100.00
17772;BME280;9010;32.624;-96.938;2022-07-23T06:57:33;99141.41;;;27.87;100.00
17772;BME280;9010;32.624;-96.938;2022-07-23T07:00:01;99145.19;;;27.93;100.00
17772;BME280;9010;32.624;-96.938;2022-07-23T07:02:30;99143.00;;;27.82;100.00
17772;BME280;9010;32.624;-96.938;2022-07-23T07:04:58;99142.56;;;27.78;100.00
17772;BME280;9010;32.624;-96.938;2022-07-23T07:07:26;99142.75;;;27.77;100.00
17772;BME280;9010;32.624;-96.938;2022-07-23T07:09:56;99113.47;;;27.59;100.00
17772;BME280;9010;32.624;-96.938;2022-07-23T07:12:29;99145.06;;;27.80;100.00
17772;BME280;9010;32.624;-96.938;2022-07-23T07:14:57;99140.81;;;27.71;100.00
17772;BME280;9010;32.624;-96.938;2022-07-23T07:17:26;99139.22;;;27.76;100.00
17772;BME280;9010;32.624;-96.938;2022-07-23T07:19:54;99147.25;;;27.70;100.00
17772;BME280;9010;32.624;-96.938;2022-07-23T07:22:22;99146.59;;;27.68;100.00
17772;BME280;9010;32.624;-96.938;2022-07-23T07:24:50;99153.97;;;27.59;100.00
17772;BME280;9010;32.624;-96.938;2022-07-23T07:27:20;99150.25;;;27.60;100.00
17772;BME280;9010;32.624;-96.938;2022-07-23T07:29:48;99156.44;;;27.54;100.00
17772;BME280;9010;32.624;-96.938;2022-07-23T07:32:17;99154.75;;;27.53;100.00
17772;BME280;9010;32.624;-96.938;2022-07-23T07:34:45;99152.63;;;27.49;100.00
17772;BME280;9010;32.624;-96.938;2022-07-23T07:37:13;99156.06;;;27.43;100.00
17772;BME280;9010;32.624;-96.938;2022-07-23T07:39:41;99158.97;;;27.41;100.00
17772;BME280;9010;32.624;-96.938;2022-07-23T07:42:09;99159.41;;;27.45;100.00
17772;BME280;9010;32.624;-96.938;2022-07-23T07:44:39;99154.69;;;27.47;100.00
17772;BME280;9010;32.624;-96.938;2022-07-23T07:47:08;99157.84;;;27.35;100.00
17772;BME280;9010;32.624;-96.938;2022-07-23T07:49:36;99159.50;;;27.36;100.00
17772;BME280;9010;32.624;-96.938;2022-07-23T07:52:04;99152.44;;;27.35;100.00
17772;BME280;9010;32.624;-96.938;2022-07-23T07:54:33;99151.41;;;27.36;100.00
17772;BME280;9010;32.624;-96.938;2022-07-23T07:57:01;99152.06;;;27.38;100.00
17772;BME280;9010;32.624;-96.938;2022-07-23T07:59:29;99151.72;;;27.42;100.00
17772;BME280;9010;32.624;-96.938;2022-07-23T08:01:59;99159.44;;;27.30;100.00
17772;BME280;9010;32.624;-96.938;2022-07-23T08:04:27;99164.00;;;27.29;100.00
17772;BME280;9010;32.624;-96.938;2022-07-23T08:06:56;99156.56;;;27.17;100.00
17772;BME280;9010;32.624;-96.938;2022-07-23T08:09:24;99159.81;;;27.12;100.00
17772;BME280;9010;32.624;-96.938;2022-07-23T08:11:52;99157.28;;;27.25;100.00
17772;BME280;9010;32.624;-96.938;2022-07-23T08:14:20;99162.78;;;27.17;100.00
17772;BME280;9010;32.624;-96.938;2022-07-23T08:16:49;99146.22;;;27.06;100.00
17772;BME280;9010;32.624;-96.938;2022-07-23T08:19:18;99160.66;;;27.13;100.00
17772;BME280;9010;32.624;-96.938;2022-07-23T08:21:47;99164.28;;;27.05;100.00
17772;BME280;9010;32.624;-96.938;2022-07-23T08:24:15;99172.22;;;27.07;100.00
17772;BME280;9010;32.624;-96.938;2022-07-23T08:26:43;99178.53;;;26.99;100.00
17772;BME280;9010;32.624;-96.938;2022-07-23T08:29:11;99175.28;;;27.04;100.00
17772;BME280;9010;32.624;-96.938;2022-07-23T08:31:39;99169.50;;;27.07;100.00
17772;BME280;9010;32.624;-96.938;2022-07-23T08:34:08;99172.69;;;26.96;100.00
17772;BME280;9010;32.624;-96.938;2022-07-23T08:36:38;99171.84;;;26.95;100.00
17772;BME280;9010;32.624;-96.938;2022-07-23T08:39:06;99170.06;;;26.88;100.00
17772;BME280;9010;32.624;-96.938;2022-07-23T08:41:34;99168.19;;;26.88;100.00
17772;BME280;9010;32.624;-96.938;2022-07-23T08:44:07;99167.97;;;26.75;100.00
17772;BME280;9010;32.624;-96.938;2022-07-23T08:46:36;99159.34;;;26.79;100.00
17772;BME280;9010;32.624;-96.938;2022-07-23T08:49:06;99162.88;;;26.80;100.00
17772;BME280;9010;32.624;-96.938;2022-07-23T08:51:35;99156.81;;;26.78;100.00
17772;BME280;9010;32.624;-96.938;2022-07-23T08:54:05;99155.34;;;26.75;100.00
17772;BME280;9010;32.624;-96.938;2022-07-23T08:56:33;99166.00;;;26.69;100.00
17772;BME280;9010;32.624;-96.938;2022-07-23T08:59:03;99166.09;;;26.61;100.00
17772;BME280;9010;32.624;-96.938;2022-07-23T09:01:31;99168.59;;;26.62;100.00
17772;BME280;9010;32.624;-96.938;2022-07-23T09:03:59;99174.75;;;26.56;100.00
17772;BME280;9010;32.624;-96.938;2022-07-23T09:06:29;99177.63;;;26.55;100.00
17772;BME280;9010;32.624;-96.938;2022-07-23T09:08:57;99179.13;;;26.57;100.00
17772;BME280;9010;32.624;-96.938;2022-07-23T09:11:27;99170.53;;;26.54;100.00
17772;BME280;9010;32.624;-96.938;2022-07-23T09:13:55;99169.16;;;26.58;100.00
17772;BME280;9010;32.624;-96.938;2022-07-23T09:16:28;99163.41;;;26.61;100.00
17772;BME280;9010;32.624;-96.938;2022-07-23T09:18:57;99138.94;;;26.48;100.00
17772;BME280;9010;32.624;-96.938;2022-07-23T09:21:27;99162.84;;;26.51;100.00
17772;BME280;9010;32.624;-96.938;2022-07-23T09:23:58;99167.84;;;26.54;100.00
17772;BME280;9010;32.624;-96.938;2022-07-23T09:26:34;99165.91;;;26.48;100.00
17772;BME280;9010;32.624;-96.938;2022-07-23T09:29:11;99157.81;;;26.48;100.00
17772;BME280;9010;32.624;-96.938;2022-07-23T09:31:45;99161.69;;;26.45;100.00
17772;BME280;9010;32.624;-96.938;2022-07-23T09:34:16;99167.19;;;26.52;100.00
17772;BME280;9010;32.624;-96.938;2022-07-23T09:36:44;99160.56;;;26.40;100.00
17772;BME280;9010;32.624;-96.938;2022-07-23T09:39:13;99160.19;;;26.43;100.00
17772;BME280;9010;32.624;-96.938;2022-07-23T09:41:46;99158.44;;;26.35;100.00
17772;BME280;9010;32.624;-96.938;2022-07-23T09:44:16;99161.69;;;26.31;100.00
17772;BME280;9010;32.624;-96.938;2022-07-23T09:46:45;99164.06;;;26.25;100.00
17772;BME280;9010;32.624;-96.938;2022-07-23T09:49:17;99171.16;;;26.26;100.00
17772;BME280;9010;32.624;-96.938;2022-07-23T09:51:53;99169.44;;;26.25;100.00
17772;BME280;9010;32.624;-96.938;2022-07-23T09:54:25;99166.84;;;26.17;100.00
17772;BME280;9010;32.624;-96.938;2022-07-23T09:56:57;99172.22;;;26.17;100.00
17772;BME280;9010;32.624;-96.938;2022-07-23T09:59:27;99168.19;;;26.13;100.00
17772;BME280;9010;32.624;-96.938;2022-07-23T10:01:57;99159.16;;;26.06;100.00
17772;BME280;9010;32.624;-96.938;2022-07-23T10:04:27;99164.06;;;26.03;100.00
17772;BME280;9010;32.624;-96.938;2022-07-23T10:06:57;99168.56;;;26.10;100.00
17772;BME280;9010;32.624;-96.938;2022-07-23T10:09:28;99168.06;;;26.07;100.00
17772;BME280;9010;32.624;-96.938;2022-07-23T10:12:00;99163.81;;;26.12;100.00
17772;BME280;9010;32.624;-96.938;2022-07-23T10:14:35;99168.38;;;26.12;100.00
17772;BME280;9010;32.624;-96.938;2022-07-23T10:17:04;99172.59;;;26.14;100.00
17772;BME280;9010;32.624;-96.938;2022-07-23T10:19:32;99172.91;;;26.11;100.00
17772;BME280;9010;32.624;-96.938;2022-07-23T10:22:02;99171.41;;;26.09;100.00
17772;BME280;9010;32.624;-96.938;2022-07-23T10:24:47;99174.03;;;26.02;100.00
17772;BME280;9010;32.624;-96.938;2022-07-23T10:27:39;99184.44;;;26.05;100.00
17772;BME280;9010;32.624;-96.938;2022-07-23T10:30:16;99180.22;;;26.03;100.00
17772;BME280;9010;32.624;-96.938;2022-07-23T10:32:52;99189.88;;;25.97;100.00
17772;BME280;9010;32.624;-96.938;2022-07-23T10:35:29;99191.25;;;25.93;100.00
17772;BME280;9010;32.624;-96.938;2022-07-23T10:38:05;99182.75;;;26.04;100.00
17772;BME280;9010;32.624;-96.938;2022-07-23T10:40:35;99171.34;;;25.94;100.00
17772;BME280;9010;32.624;-96.938;2022-07-23T10:43:13;99187.88;;;25.91;100.00
17772;BME280;9010;32.624;-96.938;2022-07-23T10:45:43;99191.25;;;25.93;100.00
17772;BME280;9010;32.624;-96.938;2022-07-23T10:48:14;99185.38;;;25.90;100.00
17772;BME280;9010;32.624;-96.938;2022-07-23T10:50:43;99193.66;;;25.88;100.00
17772;BME280;9010;32.624;-96.938;2022-07-23T10:53:16;99197.72;;;25.84;100.00
17772;BME280;9010;32.624;-96.938;2022-07-23T10:55:47;99201.91;;;25.87;100.00
17772;BME280;9010;32.624;-96.938;2022-07-23T10:58:22;99204.44;;;25.88;100.00
17772;BME280;9010;32.624;-96.938;2022-07-23T11:00:51;99211.00;;;25.86;100.00
17772;BME280;9010;32.624;-96.938;2022-07-23T11:03:32;99205.16;;;25.82;100.00
17772;BME280;9010;32.624;-96.938;2022-07-23T11:06:03;99203.09;;;25.84;100.00
17772;BME280;9010;32.624;-96.938;2022-07-23T11:08:32;99211.66;;;25.88;100.00
17772;BME280;9010;32.624;-96.938;2022-07-23T11:11:10;99213.88;;;25.84;100.00
17772;BME280;9010;32.624;-96.938;2022-07-23T11:13:49;99196.44;;;25.72;100.00
17772;BME280;9010;32.624;-96.938;2022-07-23T11:16:22;99213.09;;;25.76;100.00
17772;BME280;9010;32.624;-96.938;2022-07-23T11:19:04;99212.53;;;25.80;100.00
17772;BME280;9010;32.624;-96.938;2022-07-23T11:21:46;99203.56;;;25.65;100.00
17772;BME280;9010;32.624;-96.938;2022-07-23T11:24:20;99230.03;;;25.84;100.00
17772;BME280;9010;32.624;-96.938;2022-07-23T11:27:04;99223.31;;;25.80;100.00
17772;BME280;9010;32.624;-96.938;2022-07-23T11:29:47;99221.34;;;25.74;100.00
17772;BME280;9010;32.624;-96.938;2022-07-23T11:32:27;99227.03;;;25.79;100.00
17772;BME280;9010;32.624;-96.938;2022-07-23T11:34:56;99224.06;;;25.74;100.00
17772;BME280;9010;32.624;-96.938;2022-07-23T11:37:33;99223.66;;;25.77;100.00
17772;BME280;9010;32.624;-96.938;2022-07-23T11:40:04;99224.41;;;25.71;100.00
17772;BME280;9010;32.624;-96.938;2022-07-23T11:42:35;99221.53;;;25.73;100.00
17772;BME280;9010;32.624;-96.938;2022-07-23T11:45:07;99231.09;;;25.75;100.00
17772;BME280;9010;32.624;-96.938;2022-07-23T11:47:36;99233.63;;;25.77;100.00
17772;BME280;9010;32.624;-96.938;2022-07-23T11:50:05;99239.13;;;25.83;100.00
17772;BME280;9010;32.624;-96.938;2022-07-23T11:52:34;99243.31;;;25.86;100.00
17772;BME280;9010;32.624;-96.938;2022-07-23T11:55:04;99244.00;;;25.88;100.00
17772;BME280;9010;32.624;-96.938;2022-07-23T11:57:34;99235.78;;;25.81;100.00
17772;BME280;9010;32.624;-96.938;2022-07-23T12:00:07;99240.28;;;25.89;100.00
17772;BME280;9010;32.624;-96.938;2022-07-23T12:02:37;99245.16;;;25.93;100.00
17772;BME280;9010;32.624;-96.938;2022-07-23T12:05:07;99242.75;;;25.98;100.00
17772;BME280;9010;32.624;-96.938;2022-07-23T12:07:37;99241.91;;;25.98;100.00
17772;BME280;9010;32.624;-96.938;2022-07-23T12:10:12;99246.94;;;26.01;100.00
17772;BME280;9010;32.624;-96.938;2022-07-23T12:12:42;99241.91;;;25.98;100.00
17772;BME280;9010;32.624;-96.938;2022-07-23T12:15:13;99237.06;;;25.93;100.00
17772;BME280;9010;32.624;-96.938;2022-07-23T12:17:43;99244.44;;;25.99;100.00
17772;BME280;9010;32.624;-96.938;2022-07-23T12:20:14;99242.22;;;26.03;100.00
17772;BME280;9010;32.624;-96.938;2022-07-23T12:22:43;99249.47;;;26.02;100.00
17772;BME280;9010;32.624;-96.938;2022-07-23T12:25:13;99256.16;;;26.06;100.00
17772;BME280;9010;32.624;-96.938;2022-07-23T12:27:42;99250.78;;;26.06;100.00
17772;BME280;9010;32.624;-96.938;2022-07-23T12:30:24;99256.47;;;26.11;100.00
17772;BME280;9010;32.624;-96.938;2022-07-23T12:32:55;99248.91;;;26.15;100.00
17772;BME280;9010;32.624;-96.938;2022-07-23T12:35:31;99258.47;;;26.17;100.00
17772;BME280;9010;32.624;-96.938;2022-07-23T12:38:02;99259.81;;;26.21;100.00
17772;BME280;9010;32.624;-96.938;2022-07-23T12:40:31;99248.00;;;26.22;100.00
17772;BME280;9010;32.624;-96.938;2022-07-23T12:43:02;99256.50;;;26.34;100.00
17772;BME280;9010;32.624;-96.938;2022-07-23T12:45:45;99254.41;;;26.44;100.00
17772;BME280;9010;32.624;-96.938;2022-07-23T12:48:24;99258.25;;;26.50;100.00
17772;BME280;9010;32.624;-96.938;2022-07-23T12:50:55;99263.81;;;26.48;100.00
17772;BME280;9010;32.624;-96.938;2022-07-23T12:53:26;99271.09;;;26.48;100.00
17772;BME280;9010;32.624;-96.938;2022-07-23T12:56:00;99268.19;;;26.49;100.00
17772;BME280;9010;32.624;-96.938;2022-07-23T12:58:40;99268.69;;;26.53;100.00